Amawalk, New York
Current Conditions -  °F | °C
As of 2:56 AM on Thursday 18 Dec 2014 (Local Time) from KHPN Reporting Station
Light Snow Light Snow  
Wind Chill: 28°   Ceiling: 5500
Heat Index: 38°   Visibility: 10mi
Dew Point: 25°   Wind: 18mph
Humidity: 60%   Direction: 300°WNW
Pressure: 29.87"   Gusts: 31mph
Location:  41.29°N, 73.77°W
Report Text: KHPN 180756Z 30016G27KT 10SM -SN SCT041 OVC055 03/M04 A2987 RMK AO2 PK WND 30030/0744 SNB56 SLP118 P0000 T00331039
Loading
Personal Weather Stations






























Interactive Weather Map New forecast layout! Learn more

10-Day Weather Forecast

Advertisements
Track Severe Weather on mobile